Time;durP1;ratioP1;P1;durP2;ratioP2;P2;SDS_P1;SDS_P2;PMS_P1;PMS_P2;Temp;Humidity;BMP_temperature;BMP_pressure;BME280_temperature;BME280_humidity;BME280_pressure;Samples;Min_cycle;Max_cycle;Signal;HPM_P1;HPM_P2
2022/04/05 00:02:09;;;;;;;14.57;7.68;;;;;;;15.04;69.39;100184.47;4972222;28;20481;-84
2022/04/05 00:04:34;;;;;;;9.70;7.22;;;;;;;15.05;68.82;100180.06;4973585;28;20027;-84
2022/04/05 00:07:00;;;;;;;18.45;7.78;;;;;;;15.07;68.87;100184.22;4973559;28;20058;-84
2022/04/05 00:09:25;;;;;;;18.02;8.10;;;;;;;15.11;69.07;100181.31;4985716;28;20030;-83
2022/04/05 00:11:50;;;;;;;18.83;8.70;;;;;;;15.13;68.84;100184.66;4991894;28;20113;-84
2022/04/05 00:14:16;;;;;;;12.98;8.38;;;;;;;15.12;68.78;100181.16;4992771;28;20435;-84
2022/04/05 00:16:41;;;;;;;14.00;7.97;;;;;;;15.10;68.79;100188.38;4992729;28;20480;-85
2022/04/05 00:19:06;;;;;;;13.07;7.75;;;;;;;15.07;68.77;100178.94;4993765;28;20026;-84
2022/04/05 00:21:32;;;;;;;14.48;7.55;;;;;;;15.11;68.87;100182.13;4993310;28;20157;-84
2022/04/05 00:23:57;;;;;;;15.52;7.50;;;;;;;15.06;68.88;100177.25;4983232;28;20023;-84
2022/04/05 00:26:23;;;;;;;12.60;7.55;;;;;;;14.99;69.13;100170.84;4973417;28;20047;-84
2022/04/05 00:28:48;;;;;;;17.08;7.50;;;;;;;14.91;69.15;100183.94;4971926;28;20397;-84
2022/04/05 00:31:13;;;;;;;17.60;6.80;;;;;;;14.79;69.58;100187.66;4972796;28;20026;-84
2022/04/05 00:33:39;;;;;;;12.48;6.97;;;;;;;14.93;69.56;100189.06;4973100;28;20069;-84
2022/04/05 00:36:05;;;;;;;18.20;7.50;;;;;;;14.82;69.38;100185.56;4973254;28;20473;-84
2022/04/05 00:38:30;;;;;;;19.63;7.70;;;;;;;14.88;69.35;100178.91;4974188;28;20034;-84
2022/04/05 00:40:56;;;;;;;20.58;7.88;;;;;;;14.93;69.02;100182.00;4972828;28;20042;-84
2022/04/05 00:43:21;;;;;;;19.55;6.90;;;;;;;14.95;69.20;100185.34;4972836;28;20026;-84
2022/04/05 00:45:46;;;;;;;14.38;7.13;;;;;;;14.93;69.15;100184.63;4972903;28;20035;-84
2022/04/05 00:48:24;;;;;;;14.05;7.32;;;;;;;15.12;68.94;100185.59;4972859;28;20026;-84
2022/04/05 00:50:50;;;;;;;13.98;7.25;;;;;;;15.04;68.94;100181.84;4971634;28;20027;-83
2022/04/05 00:53:15;;;;;;;18.70;7.97;;;;;;;15.08;68.74;100182.41;4973770;28;20031;-84
2022/04/05 00:55:42;;;;;;;17.90;8.35;;;;;;;15.07;68.76;100175.47;4972622;28;20116;-84
2022/04/05 00:58:09;;;;;;;12.57;7.35;;;;;;;15.03;68.73;100174.91;4972755;28;20019;-84
2022/04/05 01:00:35;;;;;;;15.10;8.40;;;;;;;15.05;68.38;100183.53;4971323;28;20058;-84
2022/04/05 01:03:00;;;;;;;14.40;7.75;;;;;;;15.07;68.38;100165.72;4972693;28;20030;-84
2022/04/05 01:05:27;;;;;;;17.75;7.40;;;;;;;15.07;67.84;100173.63;4972817;28;20031;-84
2022/04/05 01:07:55;;;;;;;17.10;7.82;;;;;;;15.07;68.30;100163.06;4972814;28;20019;-84
2022/04/05 01:10:21;;;;;;;22.38;9.27;;;;;;;14.99;68.23;100160.28;4972336;28;20121;-84
2022/04/05 01:12:48;;;;;;;16.88;8.73;;;;;;;14.99;68.47;100165.56;4972618;28;20536;-84
2022/04/05 01:15:13;;;;;;;17.02;7.93;;;;;;;14.98;68.43;100165.69;4972544;28;20031;-84
2022/04/05 01:17:39;;;;;;;20.92;8.55;;;;;;;14.86;68.72;100154.44;4972897;28;20129;-84
2022/04/05 01:20:05;;;;;;;22.15;8.13;;;;;;;14.92;68.48;100161.81;4972773;28;20110;-84
2022/04/05 01:22:31;;;;;;;14.15;8.32;;;;;;;14.93;68.23;100155.56;4973607;28;20563;-84
2022/04/05 01:24:56;;;;;;;18.08;8.13;;;;;;;14.95;67.92;100152.75;4975879;28;20050;-84
2022/04/05 01:27:27;;;;;;;14.52;7.43;;;;;;;14.53;69.00;100150.31;4974933;28;20031;-84
2022/04/05 01:29:53;;;;;;;19.50;7.80;;;;;;;14.74;68.76;100152.88;4974801;28;20042;-84
2022/04/05 01:32:18;;;;;;;16.25;7.68;;;;;;;14.76;68.50;100150.94;4976361;28;20062;-84
2022/04/05 01:34:43;;;;;;;23.08;8.60;;;;;;;14.77;68.08;100145.53;4976201;28;20030;-83
2022/04/05 01:37:10;;;;;;;19.33;8.65;;;;;;;14.71;68.44;100155.78;4976055;28;20030;-84
2022/04/05 01:39:37;;;;;;;16.35;7.90;;;;;;;14.73;68.28;100148.56;4990667;28;20108;-84
2022/04/05 01:42:12;;;;;;;17.67;8.85;;;;;;;14.76;68.37;100148.31;4995006;28;20031;-84
2022/04/05 01:44:38;;;;;;;14.82;6.93;;;;;;;14.68;68.50;100144.53;4995349;28;20023;-84
2022/04/05 01:47:04;;;;;;;21.05;8.23;;;;;;;14.66;68.73;100146.47;4995636;28;20026;-84
2022/04/05 01:49:29;;;;;;;20.20;8.13;;;;;;;14.67;68.30;100148.16;4994637;28;20030;-84
2022/04/05 01:51:55;;;;;;;18.55;7.20;;;;;;;14.70;68.66;100140.94;4995039;28;20031;-84
2022/04/05 01:54:20;;;;;;;15.57;6.88;;;;;;;14.67;68.61;100145.53;4988542;28;20030;-84
2022/04/05 01:56:50;;;;;;;18.75;7.80;;;;;;;14.77;68.30;100134.09;4987317;28;20033;-84
2022/04/05 01:59:18;;;;;;;19.58;7.20;;;;;;;14.70;68.49;100138.28;4974359;28;20123;-84
2022/04/05 02:01:44;;;;;;;19.80;7.43;;;;;;;14.53;68.71;100140.56;4975218;28;20101;-84
2022/04/05 02:04:10;;;;;;;14.93;6.97;;;;;;;14.59;68.47;100140.09;4975415;28;20386;-84
2022/04/05 02:06:36;;;;;;;22.58;7.90;;;;;;;14.56;68.78;100135.06;4975382;28;20019;-84
2022/04/05 02:09:02;;;;;;;19.75;7.43;;;;;;;14.51;68.91;100139.03;4975698;28;20393;-84
2022/04/05 02:11:28;;;;;;;14.75;7.20;;;;;;;14.59;68.89;100142.72;4978896;28;20485;-84
2022/04/05 02:13:53;;;;;;;21.15;7.75;;;;;;;14.27;69.56;100145.53;4994510;28;20105;-84
2022/04/05 02:16:18;;;;;;;16.05;7.90;;;;;;;14.47;69.17;100149.03;4994868;28;20022;-84
2022/04/05 02:18:44;;;;;;;16.05;7.53;;;;;;;14.46;69.35;100155.31;4994596;28;20544;-83
2022/04/05 02:21:10;;;;;;;17.85;6.70;;;;;;;14.54;68.82;100152.81;4993313;28;20026;-84
2022/04/05 02:23:35;;;;;;;16.67;7.57;;;;;;;14.55;68.91;100156.28;4994387;28;20109;-84
2022/04/05 02:26:01;;;;;;;17.88;7.50;;;;;;;14.40;69.36;100147.94;4991908;28;20041;-84
2022/04/05 02:28:26;;;;;;;22.17;7.63;;;;;;;14.06;70.01;100150.88;4974900;28;20057;-84
2022/04/05 02:30:53;;;;;;;23.52;9.18;;;;;;;13.92;71.10;100130.09;4974922;28;20086;-84
2022/04/05 02:33:18;;;;;;;20.25;8.32;;;;;;;13.94;71.11;100128.16;4975200;28;20113;-84
2022/04/05 02:35:44;;;;;;;21.85;8.40;;;;;;;14.07;70.46;100131.44;4974204;28;20443;-84
2022/04/05 02:38:10;;;;;;;19.10;8.35;;;;;;;13.78;70.81;100124.22;4974669;28;20054;-84
2022/04/05 02:40:35;;;;;;;22.20;8.35;;;;;;;13.79;70.96;100128.53;4974873;28;20049;-84
2022/04/05 02:43:02;;;;;;;24.20;8.85;;;;;;;13.74;71.39;100135.16;4992294;28;20026;-84
2022/04/05 02:45:27;;;;;;;19.95;8.55;;;;;;;13.75;71.33;100135.03;4994029;28;20101;-83
2022/04/05 02:47:52;;;;;;;22.38;9.48;;;;;;;13.85;71.08;100132.44;4991021;28;20421;-84
2022/04/05 02:50:18;;;;;;;23.27;9.00;;;;;;;13.85;71.03;100125.34;4993826;28;20430;-84
2022/04/05 02:52:47;;;;;;;30.05;9.38;;;;;;;13.89;70.47;100132.03;4992715;28;20026;-84
2022/04/05 02:55:14;;;;;;;22.45;9.50;;;;;;;13.75;71.23;100136.84;4992544;28;20083;-84
2022/04/05 02:57:41;;;;;;;20.10;8.20;;;;;;;13.87;71.02;100130.50;4993729;28;20033;-84
2022/04/05 03:00:08;;;;;;;22.15;9.05;;;;;;;13.79;71.24;100127.69;4981401;28;20105;-84
2022/04/05 03:02:35;;;;;;;16.20;8.73;;;;;;;13.87;70.99;100120.78;4972787;28;20058;-84
2022/04/05 03:05:06;;;;;;;21.90;10.57;;;;;;;13.94;71.23;100120.25;4974350;28;20497;-84
2022/04/05 03:07:32;;;;;;;20.48;9.18;;;;;;;13.87;70.69;100107.59;4974221;28;20026;-84
2022/04/05 03:09:57;;;;;;;20.95;9.32;;;;;;;13.89;70.98;100103.00;4974049;28;20027;-84
2022/04/05 03:12:23;;;;;;;21.33;9.75;;;;;;;13.92;70.61;100107.22;4973871;28;20516;-84
2022/04/05 03:14:48;;;;;;;18.08;8.10;;;;;;;14.00;70.92;100101.25;4983596;28;20026;-83
2022/04/05 03:17:13;;;;;;;15.68;8.75;;;;;;;14.00;70.48;100103.88;4993475;28;20054;-84
2022/04/05 03:19:39;;;;;;;24.60;9.48;;;;;;;13.96;70.89;100098.06;4993460;28;20026;-83
2022/04/05 03:22:11;;;;;;;22.95;9.52;;;;;;;13.94;71.07;100104.41;4993048;28;20034;-82
2022/04/05 03:24:37;;;;;;;17.42;9.40;;;;;;;14.04;70.95;100106.13;4991929;28;20029;-82
2022/04/05 03:27:03;;;;;;;19.58;9.68;;;;;;;13.85;71.42;100101.59;4992030;28;20034;-82
2022/04/05 03:29:29;;;;;;;23.42;9.95;;;;;;;13.95;71.14;100111.38;4982552;28;20035;-82
2022/04/05 03:31:54;;;;;;;17.15;8.50;;;;;;;13.96;71.26;100108.63;4972885;28;20081;-82
2022/04/05 03:34:19;;;;;;;24.58;8.13;;;;;;;13.96;71.65;100105.13;4973560;28;20066;-82
2022/04/05 03:36:45;;;;;;;26.55;9.82;;;;;;;14.01;71.58;100109.03;4973890;28;20034;-82
2022/04/05 03:39:13;;;;;;;25.92;8.98;;;;;;;14.01;71.76;100113.47;4973628;28;20030;-82
2022/04/05 03:41:41;;;;;;;28.15;9.50;;;;;;;14.04;71.08;100107.91;4973450;28;20464;-83
2022/04/05 03:44:07;;;;;;;21.95;8.23;;;;;;;13.95;71.57;100111.38;4973498;28;20397;-83
2022/04/05 03:46:33;;;;;;;19.92;8.43;;;;;;;14.14;71.24;100115.88;4987629;28;20035;-84
2022/04/05 03:48:59;;;;;;;22.17;8.73;;;;;;;14.07;71.11;100116.41;4992736;28;20030;-83
2022/04/05 03:51:25;;;;;;;19.70;9.07;;;;;;;14.09;71.20;100111.00;4992635;28;20108;-83
2022/04/05 03:53:50;;;;;;;22.23;7.93;;;;;;;14.18;70.97;100107.56;4991588;28;20485;-83
2022/04/05 03:56:16;;;;;;;21.20;7.78;;;;;;;14.11;71.11;100101.16;4993011;28;20030;-84
2022/04/05 03:58:41;;;;;;;22.17;8.43;;;;;;;14.28;70.87;100112.88;4992497;28;20106;-83
2022/04/05 04:01:07;;;;;;;25.40;7.85;;;;;;;14.26;70.38;100105.09;4978424;28;20035;-84
2022/04/05 04:03:33;;;;;;;21.30;8.45;;;;;;;14.38;70.20;100102.34;4973125;28;20026;-84
2022/04/05 04:05:59;;;;;;;22.42;8.65;;;;;;;14.20;70.69;100104.81;4973363;28;20034;-83
2022/04/05 04:08:25;;;;;;;21.27;8.88;;;;;;;14.26;70.81;100098.97;4973318;28;20034;-83
2022/04/05 04:10:51;;;;;;;20.88;8.13;;;;;;;14.23;70.43;100102.69;4973096;28;20022;-84
2022/04/05 04:13:16;;;;;;;21.75;9.45;;;;;;;14.27;70.46;100101.44;4973243;28;20553;-83
2022/04/05 04:15:42;;;;;;;22.60;9.30;;;;;;;14.18;71.05;100106.72;4985217;28;20034;-83
2022/04/05 04:18:07;;;;;;;19.90;9.30;;;;;;;14.15;70.81;100104.34;4990722;28;20030;-83
2022/04/05 04:20:33;;;;;;;20.63;10.05;;;;;;;14.21;70.52;100104.63;4992537;28;20182;-83
2022/04/05 04:22:58;;;;;;;21.95;9.20;;;;;;;14.12;70.70;100091.41;4992595;28;20381;-83
2022/04/05 04:25:24;;;;;;;22.77;9.73;;;;;;;14.23;70.70;100092.13;4992682;28;20034;-83
2022/04/05 04:27:49;;;;;;;25.00;9.88;;;;;;;14.26;70.69;100083.13;4992716;28;20101;-83
2022/04/05 04:30:15;;;;;;;19.08;9.43;;;;;;;14.33;70.28;100080.78;4992192;28;20026;-83
2022/04/05 04:32:40;;;;;;;24.55;10.32;;;;;;;14.24;70.68;100088.53;4981842;28;20117;-83
2022/04/05 04:35:07;;;;;;;28.80;9.98;;;;;;;14.25;70.36;100081.44;4972898;28;20030;-83
2022/04/05 04:37:33;;;;;;;24.42;9.13;;;;;;;14.46;69.83;100081.34;4973408;28;20390;-83
2022/04/05 04:39:58;;;;;;;22.42;9.88;;;;;;;14.28;70.18;100082.00;4972018;28;20023;-83
2022/04/05 04:42:24;;;;;;;23.80;9.52;;;;;;;14.34;69.72;100085.09;4971739;28;20042;-84
2022/04/05 04:44:49;;;;;;;25.98;9.15;;;;;;;14.26;70.19;100083.97;4973060;28;20055;-83
2022/04/05 04:47:15;;;;;;;23.30;9.63;;;;;;;14.43;69.92;100078.97;4972680;28;20034;-83
2022/04/05 04:49:40;;;;;;;22.23;9.68;;;;;;;14.44;69.58;100091.22;4973674;28;20085;-83
2022/04/05 04:52:06;;;;;;;21.33;9.93;;;;;;;14.22;70.39;100087.84;4975494;28;20086;-83
2022/04/05 04:54:31;;;;;;;24.30;9.25;;;;;;;14.46;69.53;100089.28;4971454;28;20030;-84
2022/04/05 04:56:57;;;;;;;26.23;9.77;;;;;;;14.46;69.26;100089.28;4978430;28;20018;-83
2022/04/05 04:59:23;;;;;;;18.88;8.88;;;;;;;14.36;69.70;100076.06;4995701;28;20026;-84
2022/04/05 05:01:48;;;;;;;24.00;10.15;;;;;;;14.22;70.39;100090.47;4998139;28;20523;-83
2022/04/05 05:04:13;;;;;;;24.60;9.70;;;;;;;14.32;69.87;100082.59;4998399;28;20035;-83
2022/04/05 05:06:39;;;;;;;26.30;10.98;;;;;;;14.22;70.09;100074.63;4982045;28;20031;-83
2022/04/05 05:09:04;;;;;;;24.65;10.40;;;;;;;14.42;69.27;100082.59;4976393;28;20023;-83
2022/04/05 05:11:30;;;;;;;20.73;9.70;;;;;;;14.52;68.87;100085.25;4976044;28;20027;-83
2022/04/05 05:13:56;;;;;;;21.88;11.50;;;;;;;14.58;68.50;100079.44;4984333;28;20018;-83
2022/04/05 05:16:21;;;;;;;26.73;11.82;;;;;;;14.53;69.12;100100.13;4993441;28;20447;-84
2022/04/05 05:18:46;;;;;;;21.20;10.88;;;;;;;14.37;69.24;100085.63;4995522;28;20027;-83
2022/04/05 05:21:12;;;;;;;30.95;12.25;;;;;;;14.26;69.59;100086.59;4994510;28;20054;-84
2022/04/05 05:23:37;;;;;;;26.17;13.25;;;;;;;14.23;69.76;100084.22;4995526;28;20472;-84
2022/04/05 05:26:03;;;;;;;33.17;13.32;;;;;;;14.20;69.51;100079.22;4993895;28;20477;-84
2022/04/05 05:28:28;;;;;;;23.17;12.48;;;;;;;14.32;69.81;100087.03;4990681;28;20022;-83
2022/04/05 05:30:53;;;;;;;27.90;11.57;;;;;;;14.34;68.92;100069.25;4994473;28;20548;-83
2022/04/05 05:33:19;;;;;;;25.55;11.13;;;;;;;14.42;69.00;100077.31;4994109;28;20030;-83
2022/04/05 05:35:44;;;;;;;27.20;11.18;;;;;;;14.44;68.48;100080.66;4991140;28;20085;-84
2022/04/05 05:38:10;;;;;;;25.15;11.98;;;;;;;14.38;68.64;100092.59;4976680;28;20477;-84
2022/04/05 05:40:35;;;;;;;20.83;10.65;;;;;;;14.38;68.81;100081.22;4986363;28;20034;-84
2022/04/05 05:43:03;;;;;;;21.42;11.57;;;;;;;14.42;68.82;100080.78;4980476;28;20038;-84
2022/04/05 05:45:32;;;;;;;27.10;10.85;;;;;;;14.42;68.85;100072.03;4980260;28;20014;-84
2022/04/05 05:47:57;;;;;;;21.02;9.50;;;;;;;14.39;68.65;100078.41;4993438;28;20189;-84
2022/04/05 05:50:24;;;;;;;17.58;8.85;;;;;;;14.45;68.34;100071.75;4994306;28;20612;-84
2022/04/05 05:52:49;;;;;;;20.42;9.85;;;;;;;14.31;68.78;100065.06;4995277;28;20030;-85
2022/04/05 05:55:17;;;;;;;24.00;9.38;;;;;;;14.40;68.26;100060.78;4994690;28;20042;-84
2022/04/05 05:57:42;;;;;;;21.15;9.13;;;;;;;14.37;68.74;100056.56;4994110;28;20026;-84
2022/04/05 06:00:17;;;;;;;19.25;9.48;;;;;;;14.32;68.83;100050.06;4994139;28;20044;-84
2022/04/05 06:02:43;;;;;;;20.13;8.75;;;;;;;14.29;68.90;100067.00;4994539;28;20049;-84
2022/04/05 06:05:09;;;;;;;20.40;8.77;;;;;;;14.46;68.37;100074.25;4988120;28;20034;-83
2022/04/05 06:07:35;;;;;;;18.50;7.93;;;;;;;14.40;68.19;100069.53;4994194;28;20045;-85
2022/04/05 06:10:02;;;;;;;18.35;7.50;;;;;;;14.46;68.21;100079.53;4993223;28;20030;-85
2022/04/05 06:12:28;;;;;;;23.05;8.50;;;;;;;14.40;68.08;100084.53;4994349;28;20027;-84
2022/04/05 06:14:53;;;;;;;25.77;10.68;;;;;;;14.41;68.55;100087.03;4993767;28;20029;-83
2022/04/05 06:17:18;;;;;;;20.95;8.40;;;;;;;14.43;68.10;100084.25;4994397;28;20077;-84
2022/04/05 06:19:45;;;;;;;18.80;7.35;;;;;;;14.55;68.15;100093.72;4989541;28;20026;-83
2022/04/05 06:22:11;;;;;;;15.40;7.38;;;;;;;14.48;68.17;100082.88;4994118;28;20088;-84
2022/04/05 06:24:36;;;;;;;21.58;7.90;;;;;;;14.60;67.74;100086.25;4993163;28;20026;-84
2022/04/05 06:27:02;;;;;;;25.00;7.85;;;;;;;14.51;67.59;100075.66;4994326;28;20038;-83
2022/04/05 06:29:27;;;;;;;16.00;6.72;;;;;;;14.47;67.78;100083.88;4994333;28;20033;-84
2022/04/05 06:31:52;;;;;;;21.63;7.65;;;;;;;14.43;67.90;100073.69;4993266;28;20312;-86
2022/04/05 06:34:18;;;;;;;17.58;7.32;;;;;;;14.59;67.24;100081.09;4993616;28;20157;-85
2022/04/05 06:36:43;;;;;;;19.00;7.75;;;;;;;14.51;67.67;100081.75;4993882;28;20033;-85
2022/04/05 06:39:08;;;;;;;21.42;8.75;;;;;;;14.44;67.73;100081.47;4992910;28;20037;-85
2022/04/05 06:41:34;;;;;;;24.77;8.45;;;;;;;14.54;67.29;100084.13;4994042;28;20077;-84
2022/04/05 06:43:59;;;;;;;27.42;9.57;;;;;;;14.63;67.32;100083.34;4993850;28;20532;-84
2022/04/05 06:46:25;;;;;;;26.33;8.32;;;;;;;14.74;66.99;100089.47;4993692;28;20033;-84
2022/04/05 06:48:50;;;;;;;17.42;8.15;;;;;;;14.77;67.49;100086.53;4993170;28;20030;-84
2022/04/05 06:51:15;;;;;;;22.15;9.05;;;;;;;14.80;67.05;100078.34;4975201;28;20396;-84
2022/04/05 06:53:41;;;;;;;16.88;7.40;;;;;;;14.87;66.61;100096.16;4986218;28;20030;-85
2022/04/05 06:56:09;;;;;;;18.83;7.15;;;;;;;14.81;66.58;100083.50;4993740;28;20403;-84
2022/04/05 06:58:34;;;;;;;15.63;7.20;;;;;;;14.88;66.55;100086.41;4983348;28;20019;-85
2022/04/05 07:01:00;;;;;;;17.70;6.90;;;;;;;14.85;66.50;100089.34;4973522;28;20122;-84
2022/04/05 07:03:25;;;;;;;24.27;7.70;;;;;;;14.82;66.73;100089.59;4974129;28;20030;-84
2022/04/05 07:05:50;;;;;;;26.33;7.65;;;;;;;14.80;66.30;100092.38;4982410;28;20022;-84
2022/04/05 07:08:16;;;;;;;22.38;6.45;;;;;;;14.87;66.52;100079.47;4992736;28;20031;-85
2022/04/05 07:10:41;;;;;;;20.08;6.63;;;;;;;14.81;66.57;100095.84;4990621;28;20073;-85
2022/04/05 07:13:08;;;;;;;21.27;7.18;;;;;;;14.86;66.13;100093.63;4992420;28;20124;-84
2022/04/05 07:15:33;;;;;;;22.55;6.70;;;;;;;14.81;66.32;100093.19;4993077;28;20030;-85
2022/04/05 07:17:59;;;;;;;22.85;6.20;;;;;;;14.98;66.36;100089.88;4985297;28;20034;-85
2022/04/05 07:20:25;;;;;;;16.02;6.25;;;;;;;14.96;66.10;100089.16;4983058;28;20041;-85
2022/04/05 07:22:50;;;;;;;27.98;6.95;;;;;;;14.88;66.28;100094.31;4972631;28;20065;-85
2022/04/05 07:25:18;;;;;;;15.32;5.68;;;;;;;14.97;66.35;100077.63;4994871;28;20046;-85
2022/04/05 07:27:44;;;;;;;18.35;5.53;;;;;;;15.07;65.86;100075.81;4991311;28;20106;-85
2022/04/05 07:30:10;;;;;;;24.67;6.13;;;;;;;15.20;65.72;100077.31;4987018;28;20109;-86
2022/04/05 07:32:40;;;;;;;16.67;5.90;;;;;;;15.32;65.75;100076.16;4992547;28;20015;-85
2022/04/05 07:35:07;;;;;;;20.35;6.40;;;;;;;15.19;65.75;100076.47;4977615;28;20026;-85
2022/04/05 07:37:32;;;;;;;23.38;6.47;;;;;;;15.60;64.80;100074.44;4973904;28;20033;-85
2022/04/05 07:40:03;;;;;;;19.38;5.10;;;;;;;15.87;63.95;100075.44;4972297;28;20355;-85
2022/04/05 07:42:28;;;;;;;23.27;4.53;;;;;;;16.09;63.06;100062.81;4973832;28;20031;-84
2022/04/05 07:44:53;;;;;;;18.35;3.85;;;;;;;16.49;61.87;100062.41;4975146;28;20564;-84
2022/04/05 07:47:19;;;;;;;16.67;4.25;;;;;;;17.03;60.15;100071.19;4973843;28;20031;-85
2022/04/05 07:49:45;;;;;;;23.70;4.18;;;;;;;17.09;59.99;100069.72;4973505;28;20485;-84
2022/04/05 07:52:10;;;;;;;14.85;3.13;;;;;;;17.34;59.05;100075.22;4973796;28;20055;-85
2022/04/05 07:54:36;;;;;;;15.82;3.80;;;;;;;17.37;58.20;100069.59;4973458;28;20118;-85
2022/04/05 07:57:02;;;;;;;15.52;3.75;;;;;;;17.39;58.22;100068.44;4973436;28;20038;-85
2022/04/05 07:59:28;;;;;;;19.70;3.58;;;;;;;17.35;57.60;100045.84;4973393;28;20559;-85
2022/04/05 08:01:53;;;;;;;12.55;3.50;;;;;;;17.23;57.65;100058.53;4977825;28;20033;-85
2022/04/05 08:04:18;;;;;;;19.95;3.30;;;;;;;17.19;56.97;100078.41;4992598;28;20053;-85
2022/04/05 08:06:44;;;;;;;16.17;3.38;;;;;;;17.28;58.10;100078.47;4991945;28;20081;-85
2022/04/05 08:09:10;;;;;;;18.20;3.72;;;;;;;17.49;57.01;100078.13;4996781;28;20023;-85
2022/04/05 08:11:35;;;;;;;18.38;3.92;;;;;;;17.54;56.40;100075.84;4991618;28;20440;-85
2022/04/05 08:14:01;;;;;;;19.30;4.15;;;;;;;17.91;55.58;100082.66;4978661;28;20141;-85
2022/04/05 08:16:26;;;;;;;13.93;3.15;;;;;;;18.28;54.40;100087.59;4974500;28;20034;-85
2022/04/05 08:18:52;;;;;;;16.20;4.00;;;;;;;17.99;54.30;100082.69;4976649;28;20023;-85
2022/04/05 08:21:18;;;;;;;21.35;3.67;;;;;;;17.87;54.51;100070.69;4975681;28;20030;-85
2022/04/05 08:23:44;;;;;;;17.73;3.35;;;;;;;18.03;54.38;100068.94;4979004;28;20505;-85
2022/04/05 08:26:09;;;;;;;11.70;3.00;;;;;;;17.97;54.32;100074.03;4973231;28;20127;-85
2022/04/05 08:28:35;;;;;;;19.50;3.17;;;;;;;18.14;53.82;100083.75;4995897;28;20030;-85
2022/04/05 08:31:00;;;;;;;18.95;3.88;;;;;;;18.07;53.79;100088.06;4996006;28;20030;-85
2022/04/05 08:33:27;;;;;;;17.40;3.50;;;;;;;18.20;53.65;100091.06;4994057;28;20049;-85
2022/04/05 08:35:53;;;;;;;17.88;2.90;;;;;;;18.20;53.14;100084.94;4978652;28;20045;-85
2022/04/05 08:38:19;;;;;;;20.52;3.15;;;;;;;18.52;53.12;100086.84;4976177;28;20081;-85
2022/04/05 08:40:44;;;;;;;15.40;3.05;;;;;;;18.56;52.12;100080.22;4975799;28;20030;-85
2022/04/05 08:43:10;;;;;;;10.00;2.88;;;;;;;18.74;52.08;100092.50;4977421;28;20058;-85
2022/04/05 08:45:36;;;;;;;15.25;2.92;;;;;;;19.01;51.02;100092.22;4976273;28;20113;-85
2022/04/05 08:48:01;;;;;;;16.33;3.67;;;;;;;19.11;51.44;100088.56;4978293;28;20023;-85
2022/04/05 08:50:29;;;;;;;61.00;25.60;;;;;;;19.63;50.19;100090.81;4990435;28;20022;-85
2022/04/05 08:52:57;;;;;;;35.65;16.77;;;;;;;19.55;49.90;100094.31;4996439;28;20034;-86
2022/04/05 08:55:22;;;;;;;17.88;6.78;;;;;;;19.17;49.64;100093.19;4996383;28;20019;-85
2022/04/05 08:57:48;;;;;;;77.07;46.80;;;;;;;19.28;49.40;100103.50;4996829;28;20077;-85
2022/04/05 09:00:19;;;;;;;41.75;20.70;;;;;;;19.47;49.00;100106.81;4995139;28;20080;-86
2022/04/05 09:03:11;;;;;;;42.77;25.03;;;;;;;19.56;49.05;100100.47;4996412;28;20040;-86
2022/04/05 09:05:38;;;;;;;35.53;23.58;;;;;;;19.36;49.43;100092.03;4991215;28;20031;-84
2022/04/05 09:08:18;;;;;;;44.17;26.60;;;;;;;18.99;49.60;100093.38;4977128;28;20031;-85
2022/04/05 09:10:49;;;;;;;47.67;24.70;;;;;;;18.65;49.90;100093.50;4976676;28;20505;-85
2022/04/05 09:13:18;;;;;;;17.45;5.68;;;;;;;18.62;50.09;100097.31;4976881;28;20056;-85
2022/04/05 09:15:47;;;;;;;15.25;3.38;;;;;;;17.79;52.32;100101.53;4977393;28;20393;-85
2022/04/05 09:18:13;;;;;;;32.95;12.23;;;;;;;17.63;52.57;100106.72;4976972;28;20480;-84
2022/04/05 09:20:49;;;;;;;12.65;3.28;;;;;;;17.33;53.36;100108.03;4983038;28;20034;-84
2022/04/05 09:23:33;;;;;;;10.57;2.67;;;;;;;17.37;53.63;100115.53;4996542;28;20030;-84
2022/04/05 09:26:04;;;;;;;13.30;5.28;;;;;;;17.38;52.79;100103.94;4996457;28;20441;-84
2022/04/05 09:28:37;;;;;;;19.95;9.55;;;;;;;17.03;53.03;100105.66;4995082;28;20030;-84
2022/04/05 09:31:05;;;;;;;40.92;16.73;;;;;;;16.93;53.25;100107.56;4995834;28;20038;-85
2022/04/05 09:33:33;;;;;;;25.85;10.00;;;;;;;17.00;53.00;100099.81;4996088;28;20026;-84
2022/04/05 09:36:15;;;;;;;20.45;5.05;;;;;;;17.28;52.20;100087.28;4994361;28;20145;-84
2022/04/05 09:38:43;;;;;;;24.98;8.55;;;;;;;17.27;51.85;100096.22;4993798;28;20034;-84
2022/04/05 09:41:18;;;;;;;23.45;7.80;;;;;;;17.34;52.35;100107.88;4995998;28;20026;-84
2022/04/05 09:43:51;;;;;;;24.30;9.75;;;;;;;17.15;52.41;100108.06;4995702;28;20505;-85
2022/04/05 09:46:16;;;;;;;21.15;11.02;;;;;;;17.04;51.92;100104.69;4981497;28;20370;-82
2022/04/05 09:48:41;;;;;;;17.60;6.40;;;;;;;17.16;51.91;100104.41;4990032;28;20137;-83
2022/04/05 09:51:17;;;;;;;23.00;11.10;;;;;;;17.20;51.90;100111.09;5000712;28;20026;-84
2022/04/05 09:53:50;;;;;;;28.65;13.13;;;;;;;16.80;53.30;100121.16;4985696;28;20366;-84
2022/04/05 09:56:19;;;;;;;25.92;8.23;;;;;;;16.73;53.42;100098.09;4989697;28;20027;-84
2022/04/05 09:58:54;;;;;;;18.38;5.30;;;;;;;17.06;53.86;100107.16;4990365;28;20034;-84
2022/04/05 10:01:26;;;;;;;20.70;5.07;;;;;;;17.88;52.21;100104.25;4979394;28;20030;-84
2022/04/05 10:03:59;;;;;;;;;;;;;;;19.01;48.86;100116.16;4979644;28;20019;-84
2022/04/05 10:06:25;;;;;;;30.70;13.00;;;;;;;18.87;49.27;100116.81;4991022;28;19921;-84
2022/04/05 10:08:52;;;;;;;21.52;8.98;;;;;;;19.65;48.00;100120.75;4999594;28;20019;-83
2022/04/05 10:11:17;;;;;;;17.95;4.35;;;;;;;19.96;46.43;100114.69;4996060;28;20102;-83
2022/04/05 10:13:43;;;;;;;12.57;2.65;;;;;;;19.87;46.36;100118.41;4982196;28;20054;-83
2022/04/05 10:16:11;;;;;;;99.72;49.85;;;;;;;19.75;46.78;100121.44;4991546;28;20030;-83
2022/04/05 10:18:37;;;;;;;77.60;34.50;;;;;;;19.71;47.36;100132.56;4988345;28;20077;-83
2022/04/05 10:21:04;;;;;;;76.38;38.35;;;;;;;19.09;48.28;100115.31;4973718;28;20034;-83
2022/04/05 10:23:31;;;;;;;99.70;49.63;;;;;;;18.92;48.29;100119.84;4987003;28;20026;-83
2022/04/05 10:25:58;;;;;;;19.83;6.70;;;;;;;18.94;48.79;100125.81;4994296;28;20022;-83
2022/04/05 10:28:31;;;;;;;24.45;9.63;;;;;;;19.18;49.17;100127.63;4994292;28;20030;-83
2022/04/05 10:31:24;;;;;;;27.60;10.13;;;;;;;19.78;48.06;100121.06;4988490;28;20492;-83
2022/04/05 10:34:16;;;;;;;13.52;4.35;;;;;;;20.50;46.49;100117.44;4974845;28;20101;-83
2022/04/05 10:37:09;;;;;;;13.75;3.13;;;;;;;21.57;45.91;100103.28;4975199;28;20114;-84
2022/04/05 10:39:35;;;;;;;13.73;2.85;;;;;;;21.55;43.78;100105.28;4987599;28;20027;-84
2022/04/05 10:42:11;;;;;;;14.38;5.10;;;;;;;22.18;43.65;100109.22;4984057;28;20183;-84
2022/04/05 10:44:46;;;;;;;13.68;3.15;;;;;;;22.01;42.32;100098.91;4987590;28;20029;-83
2022/04/05 10:47:12;;;;;;;12.07;2.67;;;;;;;21.63;41.97;100089.16;4980985;28;20038;-83
2022/04/05 10:49:39;;;;;;;13.95;3.05;;;;;;;21.88;42.46;100092.41;4993791;28;20392;-83
2022/04/05 10:52:08;;;;;;;13.50;3.40;;;;;;;21.86;42.15;100090.91;4988847;28;20026;-84
2022/04/05 10:54:44;;;;;;;10.95;2.88;;;;;;;21.95;41.60;100085.28;4974730;28;20066;-84
2022/04/05 10:57:27;;;;;;;10.45;3.45;;;;;;;21.76;41.45;100085.84;4982252;28;20037;-84
2022/04/05 10:59:55;;;;;;;10.35;3.28;;;;;;;22.26;42.12;100080.75;4990876;28;20034;-84
2022/04/05 11:03:00;;;;;;;13.68;2.13;;;;;;;21.61;42.40;100079.69;4985993;28;20117;-84
2022/04/05 11:05:35;;;;;;;8.13;2.33;;;;;;;21.36;42.79;100078.06;4974136;28;20539;-84
2022/04/05 11:08:03;;;;;;;11.23;3.55;;;;;;;20.99;43.81;100077.09;4974054;28;20552;-84
2022/04/05 11:10:30;;;;;;;13.07;3.15;;;;;;;20.75;44.25;100086.13;4990435;28;20033;-85
2022/04/05 11:13:30;;;;;;;14.25;3.67;;;;;;;20.93;44.62;100083.16;4992768;28;20037;-85
2022/04/05 11:15:57;;;;;;;12.60;2.72;;;;;;;20.31;45.17;100067.22;4988646;28;20026;-84
2022/04/05 11:18:25;;;;;;;11.45;3.08;;;;;;;21.11;44.73;100072.16;4984771;28;20117;-84